TimeCST,TemperatureF,Dew PointF,Humidity,Sea Level PressureIn,VisibilityMPH,Wind Direction,Wind SpeedMPH,Gust SpeedMPH,PrecipitationIn,Events,Conditions,WindDirDegrees,DateUTC
12:15 AM,56.8,52.7,86,30.18,10.0,Calm,Calm,-,N/A,,Clear,0,2012-11-25 06:15:00
12:35 AM,56.3,52.7,88,30.17,10.0,Calm,Calm,-,N/A,,Clear,0,2012-11-25 06:35:00
12:55 AM,56.5,52.7,87,30.16,10.0,Calm,Calm,-,N/A,,Clear,0,2012-11-25 06:55:00
1:15 AM,56.5,52.7,87,30.16,10.0,Calm,Calm,-,N/A,,Scattered Clouds,0,2012-11-25 07:15:00
1:35 AM,56.8,52.7,86,30.15,10.0,Calm,Calm,-,N/A,,Scattered Clouds,0,2012-11-25 07:35:00
1:55 AM,56.7,52.5,86,30.14,10.0,Calm,Calm,-,N/A,,Clear,0,2012-11-25 07:55:00
2:15 AM,56.3,52.7,88,30.13,10.0,Calm,Calm,-,N/A,,Clear,0,2012-11-25 08:15:00
2:35 AM,56.1,52.7,88,30.12,10.0,WNW,3.5,-,N/A,,Clear,290,2012-11-25 08:35:00
2:55 AM,55.9,52.7,89,30.12,10.0,Calm,Calm,-,N/A,,Clear,0,2012-11-25 08:55:00
3:15 AM,55.8,52.7,89,30.11,10.0,NW,4.6,-,N/A,,Scattered Clouds,310,2012-11-25 09:15:00
3:35 AM,55.8,52.7,89,30.11,10.0,Calm,Calm,-,N/A,,Scattered Clouds,0,2012-11-25 09:35:00
3:55 AM,55.8,52.7,89,30.10,10.0,Calm,Calm,-,N/A,,Scattered Clouds,0,2012-11-25 09:55:00
4:15 AM,56.3,52.7,88,30.10,10.0,Calm,Calm,-,N/A,,Mostly Cloudy,0,2012-11-25 10:15:00
4:35 AM,56.3,52.7,88,30.10,10.0,Calm,Calm,-,N/A,,Mostly Cloudy,0,2012-11-25 10:35:00
4:55 AM,57.0,53.4,88,30.09,10.0,Calm,Calm,-,N/A,,Overcast,0,2012-11-25 10:55:00
5:15 AM,57.4,53.2,86,30.09,10.0,Calm,Calm,-,N/A,,Overcast,0,2012-11-25 11:15:00
5:35 AM,58.1,53.8,86,30.09,10.0,Calm,Calm,-,N/A,,Overcast,0,2012-11-25 11:35:00
5:55 AM,58.5,54.0,85,30.09,10.0,Calm,Calm,-,N/A,,Overcast,0,2012-11-25 11:55:00
6:15 AM,58.5,53.8,84,30.09,10.0,Calm,Calm,-,N/A,,Overcast,0,2012-11-25 12:15:00
6:35 AM,58.6,54.1,85,30.10,10.0,Calm,Calm,-,N/A,,Overcast,0,2012-11-25 12:35:00
6:55 AM,59.0,54.7,86,30.10,10.0,Calm,Calm,-,N/A,,Overcast,0,2012-11-25 12:55:00
7:15 AM,59.4,54.9,85,30.10,10.0,Calm,Calm,-,N/A,,Overcast,0,2012-11-25 13:15:00
7:35 AM,59.7,55.2,85,30.10,10.0,Calm,Calm,-,N/A,,Overcast,0,2012-11-25 13:35:00
7:55 AM,60.1,55.4,85,30.10,10.0,Calm,Calm,-,N/A,,Overcast,0,2012-11-25 13:55:00
8:15 AM,60.3,54.5,81,30.11,10.0,Calm,Calm,-,N/A,,Overcast,0,2012-11-25 14:15:00
8:35 AM,61.0,54.1,78,30.11,10.0,Calm,Calm,-,N/A,,Overcast,0,2012-11-25 14:35:00
8:55 AM,61.7,54.7,78,30.11,10.0,Calm,Calm,-,N/A,,Overcast,0,2012-11-25 14:55:00
9:15 AM,62.4,54.9,76,30.11,10.0,Calm,Calm,-,N/A,,Overcast,0,2012-11-25 15:15:00
9:35 AM,63.5,55.8,76,30.12,10.0,Calm,Calm,-,N/A,,Overcast,0,2012-11-25 15:35:00
9:55 AM,64.6,56.8,76,30.12,10.0,Calm,Calm,-,N/A,,Overcast,0,2012-11-25 15:55:00
10:15 AM,65.5,57.0,74,30.11,10.0,Calm,Calm,-,N/A,,Overcast,0,2012-11-25 16:15:00
10:35 AM,66.4,57.6,73,30.11,10.0,Calm,Calm,-,N/A,,Overcast,0,2012-11-25 16:35:00
10:55 AM,67.3,58.1,72,30.11,10.0,Calm,Calm,-,N/A,,Overcast,0,2012-11-25 16:55:00
11:15 AM,68.4,58.5,71,30.10,10.0,Calm,Calm,-,N/A,,Overcast,0,2012-11-25 17:15:00
11:35 AM,69.8,58.8,68,30.08,10.0,NNW,3.5,-,N/A,,Mostly Cloudy,340,2012-11-25 17:35:00
11:55 AM,70.9,59.9,68,30.07,7.0,Calm,Calm,-,N/A,,Scattered Clouds,0,2012-11-25 17:55:00
12:15 PM,72.0,60.3,67,30.06,5.0,Calm,Calm,-,N/A,,Haze,0,2012-11-25 18:15:00
12:35 PM,72.1,61.3,69,30.05,5.0,East,4.6,-,N/A,,Haze,80,2012-11-25 18:35:00
12:55 PM,73.4,61.9,67,30.03,7.0,SE,4.6,-,N/A,,Mostly Cloudy,130,2012-11-25 18:55:00
1:15 PM,75.2,62.4,64,30.02,7.0,SSE,4.6,-,N/A,,Overcast,160,2012-11-25 19:15:00
1:35 PM,75.4,62.2,64,30.00,7.0,North,3.5,-,N/A,,Scattered Clouds,350,2012-11-25 19:35:00
1:55 PM,75.2,62.8,65,29.99,7.0,Calm,Calm,-,N/A,,Clear,0,2012-11-25 19:55:00
2:35 PM,77.0,63.1,62,29.97,7.0,SE,5.8,-,N/A,,Clear,130,2012-11-25 20:35:00
2:55 PM,77.5,63.0,61,29.97,7.0,SSE,9.2,-,N/A,,Clear,150,2012-11-25 20:55:00
3:15 PM,77.9,63.0,60,29.96,5.0,South,5.8,-,N/A,,Haze,180,2012-11-25 21:15:00
3:35 PM,78.3,63.5,60,29.95,7.0,SE,8.1,-,N/A,,Scattered Clouds,140,2012-11-25 21:35:00
3:55 PM,78.4,63.1,59,29.95,7.0,SE,8.1,-,N/A,,Scattered Clouds,130,2012-11-25 21:55:00
4:15 PM,78.3,63.0,59,29.95,7.0,SSE,6.9,-,N/A,,Clear,150,2012-11-25 22:15:00
4:35 PM,78.1,63.1,60,29.94,7.0,SE,5.8,-,N/A,,Clear,130,2012-11-25 22:35:00
4:55 PM,77.5,63.5,62,29.94,7.0,SSE,4.6,-,N/A,,Clear,150,2012-11-25 22:55:00
5:15 PM,76.5,63.1,63,29.94,10.0,SSE,5.8,-,N/A,,Clear,160,2012-11-25 23:15:00
5:35 PM,75.2,63.0,66,29.94,7.0,SSE,4.6,-,N/A,,Clear,160,2012-11-25 23:35:00
5:55 PM,73.4,63.3,71,29.94,7.0,SE,3.5,-,N/A,,Clear,140,2012-11-25 23:55:00
6:15 PM,71.8,64.4,77,29.94,7.0,SE,4.6,-,N/A,,Clear,140,2012-11-26 00:15:00
6:35 PM,70.3,64.2,81,29.95,10.0,SE,4.6,-,N/A,,Clear,140,2012-11-26 00:35:00
6:55 PM,69.8,64.0,82,29.96,7.0,SE,4.6,-,N/A,,Clear,140,2012-11-26 00:55:00
7:15 PM,69.6,64.2,83,29.96,7.0,SE,5.8,-,N/A,,Clear,140,2012-11-26 01:15:00
7:35 PM,69.3,64.4,84,29.97,7.0,Calm,Calm,-,N/A,,Clear,0,2012-11-26 01:35:00
7:55 PM,68.5,63.5,84,29.98,7.0,SE,5.8,-,N/A,,Clear,140,2012-11-26 01:55:00
8:15 PM,69.3,64.2,84,29.98,7.0,SSE,4.6,-,N/A,,Clear,150,2012-11-26 02:15:00
8:35 PM,69.8,64.0,82,29.99,7.0,SSE,5.8,-,N/A,,Clear,160,2012-11-26 02:35:00
8:55 PM,69.8,63.7,81,29.99,7.0,SSE,6.9,-,N/A,,Clear,160,2012-11-26 02:55:00
9:15 PM,68.9,63.0,81,29.99,7.0,SSE,6.9,-,N/A,,Clear,160,2012-11-26 03:15:00
9:55 PM,68.4,63.0,83,30.00,7.0,SSE,5.8,-,N/A,,Clear,160,2012-11-26 03:55:00
10:15 PM,68.0,63.1,84,29.99,7.0,SSE,4.6,-,N/A,,Clear,160,2012-11-26 04:15:00
10:35 PM,67.5,63.5,87,29.99,7.0,SSE,4.6,-,N/A,,Clear,160,2012-11-26 04:35:00
10:55 PM,67.5,63.7,88,29.98,7.0,SSE,5.8,-,N/A,,Clear,160,2012-11-26 04:55:00
11:15 PM,67.1,63.5,88,29.98,7.0,SSE,3.5,-,N/A,,Clear,150,2012-11-26 05:15:00
11:35 PM,67.1,63.7,89,29.98,5.0,SSE,5.8,-,N/A,,Clear,160,2012-11-26 05:35:00
11:55 PM,67.6,64.4,89,29.97,7.0,South,5.8,-,N/A,,Clear,170,2012-11-26 05:55:00